Time;durP1;ratioP1;P1;durP2;ratioP2;P2;SDS_P1;SDS_P2;PMS_P1;PMS_P2;Temp;Humidity;BMP_temperature;BMP_pressure;BME280_temperature;BME280_humidity;BME280_pressure;Samples;Min_cycle;Max_cycle;Signal;HPM_P1;HPM_P2
2024/02/11 00:00:45;;;;;;;86.80;44.80;;;;;;;4.05;100.00;100271.31;109728;1253;58961;-81
2024/02/11 00:03:15;;;;;;;84.80;45.10;;;;;;;4.05;100.00;100273.92;109664;1253;72638;-82
2024/02/11 00:05:44;;;;;;;87.70;41.70;;;;;;;4.03;100.00;100267.95;109584;1252;62408;-80
2024/02/11 00:08:12;;;;;;;76.70;40.40;;;;;;;4.01;100.00;100266.45;109560;1253;71731;-82
2024/02/11 00:10:40;;;;;;;92.70;46.20;;;;;;;4.00;100.00;100266.86;109466;1253;60956;-80
2024/02/11 00:13:08;;;;;;;80.20;44.10;;;;;;;4.01;100.00;100265.96;109712;1252;58974;-82
2024/02/11 00:15:38;;;;;;;87.10;45.80;;;;;;;3.99;100.00;100264.28;109623;1252;72835;-80
2024/02/11 00:18:06;;;;;;;87.40;45.60;;;;;;;4.02;100.00;100263.13;109640;1253;62292;-81
2024/02/11 00:20:34;;;;;;;85.50;43.90;;;;;;;4.03;100.00;100263.80;109586;1253;71387;-82
2024/02/11 00:23:04;;;;;;;84.40;43.40;;;;;;;4.01;100.00;100267.50;109607;1252;60898;-81
2024/02/11 00:25:32;;;;;;;83.70;43.30;;;;;;;3.98;100.00;100258.80;109485;1252;59280;-81
2024/02/11 00:28:00;;;;;;;87.30;43.80;;;;;;;3.95;100.00;100259.95;109564;1252;72943;-80
2024/02/11 00:30:28;;;;;;;85.00;41.20;;;;;;;3.93;100.00;100257.94;109631;1253;62661;-80
2024/02/11 00:32:58;;;;;;;84.10;41.50;;;;;;;3.94;100.00;100260.16;109594;1252;71331;-81
2024/02/11 00:35:27;;;;;;;78.60;37.80;;;;;;;3.93;100.00;100260.19;109596;1253;60843;-81
2024/02/11 00:37:54;;;;;;;78.80;39.40;;;;;;;3.90;100.00;100257.22;109658;1253;59971;-81
2024/02/11 00:40:22;;;;;;;85.50;41.70;;;;;;;3.87;100.00;100268.38;109606;1252;72769;-80
2024/02/11 00:42:51;;;;;;;78.30;39.70;;;;;;;3.88;100.00;100272.83;109644;1252;62470;-81
2024/02/11 00:45:19;;;;;;;112.50;44.80;;;;;;;3.90;100.00;100272.75;109583;1253;72648;-79
2024/02/11 00:47:47;;;;;;;90.50;44.80;;;;;;;3.91;100.00;100275.84;109535;1252;60863;-81
2024/02/11 00:50:16;;;;;;;81.00;41.30;;;;;;;3.93;100.00;100277.52;109576;1253;59305;-81
2024/02/11 00:52:48;;;;;;;86.70;42.60;;;;;;;3.93;100.00;100279.56;109596;1253;73907;-81
2024/02/11 00:55:21;;;;;;;85.70;43.80;;;;;;;3.96;100.00;100278.76;109618;1253;64135;-81
2024/02/11 00:57:49;;;;;;;94.80;49.50;;;;;;;4.01;100.00;100279.09;109671;1252;71427;-81
2024/02/11 01:00:17;;;;;;;96.80;48.10;;;;;;;4.04;100.00;100288.67;109627;1252;60993;-80
2024/02/11 01:02:44;;;;;;;88.80;45.40;;;;;;;4.05;100.00;100296.06;109667;1253;62232;-81
2024/02/11 01:05:12;;;;;;;97.90;51.90;;;;;;;4.08;100.00;100299.06;109584;1252;73900;-81
2024/02/11 01:07:40;;;;;;;92.30;47.50;;;;;;;4.08;100.00;100296.48;109604;1252;62493;-80
2024/02/11 01:10:12;;;;;;;84.50;44.20;;;;;;;4.07;100.00;100300.47;109587;1253;72690;-80
2024/02/11 01:12:41;;;;;;;85.40;42.80;;;;;;;4.03;100.00;100304.09;109611;1253;58844;-81
2024/02/11 01:15:12;;;;;;;95.50;49.70;;;;;;;4.02;100.00;100302.08;109657;1253;59905;-81
2024/02/11 01:17:40;;;;;;;79.00;41.90;;;;;;;4.02;100.00;100303.43;109646;1252;73935;-81
2024/02/11 01:20:10;;;;;;;72.80;39.50;;;;;;;4.01;100.00;100306.06;109479;1255;63664;-81
2024/02/11 01:22:40;;;;;;;78.40;42.20;;;;;;;4.00;100.00;100306.48;109648;1253;72594;-81
2024/02/11 01:25:10;;;;;;;82.60;43.00;;;;;;;3.98;100.00;100303.41;109661;1253;59553;-80
2024/02/11 01:27:37;;;;;;;74.40;40.10;;;;;;;3.97;100.00;100310.38;109651;1252;60025;-81
2024/02/11 01:30:06;;;;;;;69.00;38.90;;;;;;;3.97;100.00;100307.95;109491;1253;73885;-81
2024/02/11 01:32:33;;;;;;;70.30;40.10;;;;;;;3.96;100.00;100307.14;109632;1252;63496;-81
2024/02/11 01:35:01;;;;;;;72.40;40.00;;;;;;;3.95;100.00;100306.63;109630;1252;71231;-81
2024/02/11 01:37:29;;;;;;;79.70;41.90;;;;;;;3.93;100.00;100307.40;109623;1253;61051;-82
2024/02/11 01:39:56;;;;;;;84.20;45.90;;;;;;;3.94;100.00;100310.48;109595;1252;59979;-82
2024/02/11 01:42:25;;;;;;;85.90;47.90;;;;;;;3.94;100.00;100310.85;109622;1251;72583;-81
2024/02/11 01:44:53;;;;;;;77.20;46.10;;;;;;;3.90;100.00;100311.16;109576;1252;63818;-81
2024/02/11 01:47:21;;;;;;;85.30;49.70;;;;;;;3.86;100.00;100315.80;109620;1252;71442;-80
2024/02/11 01:49:48;;;;;;;99.60;54.60;;;;;;;3.84;100.00;100315.20;109763;1253;61211;-81
2024/02/11 01:52:17;;;;;;;104.40;56.50;;;;;;;3.83;100.00;100317.66;109570;1252;58909;-81
2024/02/11 01:54:45;;;;;;;108.80;56.40;;;;;;;3.81;100.00;100317.89;109538;1253;72625;-81
2024/02/11 01:57:12;;;;;;;113.30;62.30;;;;;;;3.79;100.00;100322.13;109630;1252;63871;-82
2024/02/11 01:59:40;;;;;;;106.50;61.80;;;;;;;3.76;100.00;100316.52;109545;1253;72471;-80
2024/02/11 02:02:09;;;;;;;130.50;68.50;;;;;;;3.73;100.00;100313.16;109569;1252;60050;-81
2024/02/11 02:04:37;;;;;;;116.20;58.80;;;;;;;3.72;100.00;100308.86;109571;1252;59954;-80
2024/02/11 02:07:06;;;;;;;116.30;61.10;;;;;;;3.73;100.00;100316.29;109643;1252;72533;-80
2024/02/11 02:09:34;;;;;;;137.70;69.30;;;;;;;3.74;100.00;100324.88;109498;1252;62367;-81
2024/02/11 02:12:04;;;;;;;121.10;63.60;;;;;;;3.77;100.00;100325.13;109617;1252;70775;-82
2024/02/11 02:14:33;;;;;;;118.50;63.50;;;;;;;3.79;100.00;100324.55;109636;1252;59869;-82
2024/02/11 02:17:01;;;;;;;122.60;60.90;;;;;;;3.84;100.00;100330.41;109665;1252;58958;-82
2024/02/11 02:19:28;;;;;;;129.70;65.80;;;;;;;3.88;100.00;100327.66;109639;1251;72451;-81
2024/02/11 02:21:56;;;;;;;123.80;65.40;;;;;;;3.90;100.00;100325.67;109672;1252;61334;-81
2024/02/11 02:24:23;;;;;;;123.50;60.60;;;;;;;3.92;100.00;100329.59;109599;1252;71621;-82
2024/02/11 02:26:51;;;;;;;134.80;70.50;;;;;;;3.95;100.00;100327.41;109531;1252;59825;-82
2024/02/11 02:29:19;;;;;;;136.80;67.80;;;;;;;3.99;100.00;100321.38;109630;1252;61501;-81
2024/02/11 02:31:46;;;;;;;129.40;69.50;;;;;;;4.02;100.00;100319.54;109593;1253;73815;-81
2024/02/11 02:34:13;;;;;;;116.80;63.30;;;;;;;4.04;100.00;100315.50;109700;1253;62284;-80
2024/02/11 02:36:41;;;;;;;119.30;63.70;;;;;;;4.03;100.00;100317.27;109559;1252;71111;-80
2024/02/11 02:39:12;;;;;;;122.30;62.50;;;;;;;4.02;100.00;100319.72;109574;1253;59692;-81
2024/02/11 02:41:40;;;;;;;116.40;61.30;;;;;;;4.03;100.00;100322.77;109632;1253;60072;-81
2024/02/11 02:44:08;;;;;;;115.90;59.00;;;;;;;4.05;100.00;100321.67;109645;1252;71756;-83
2024/02/11 02:46:36;;;;;;;120.60;59.10;;;;;;;4.07;100.00;100316.55;109665;1251;63540;-83
2024/02/11 02:49:03;;;;;;;102.40;51.40;;;;;;;4.11;100.00;100317.98;109613;1253;73125;-82
2024/02/11 02:51:31;;;;;;;96.70;50.00;;;;;;;4.11;100.00;100322.64;109560;1252;59887;-82
2024/02/11 02:54:02;;;;;;;109.70;59.80;;;;;;;4.11;100.00;100324.90;109675;1252;58748;-80
2024/02/11 02:56:31;;;;;;;99.50;51.60;;;;;;;4.09;100.00;100319.77;109660;1252;73995;-80
2024/02/11 02:58:59;;;;;;;104.70;55.50;;;;;;;4.08;100.00;100311.71;109666;1252;63571;-81
2024/02/11 03:01:29;;;;;;;93.80;52.80;;;;;;;4.09;100.00;100304.55;109591;1252;71377;-81
2024/02/11 03:04:01;;;;;;;100.20;50.80;;;;;;;4.12;100.00;100302.19;109586;1251;60866;-80
2024/02/11 03:06:29;;;;;;;99.30;48.10;;;;;;;4.14;100.00;100299.71;109670;1252;60040;-82
2024/02/11 03:08:56;;;;;;;107.80;50.40;;;;;;;4.16;100.00;100294.62;109648;1252;72622;-80
2024/02/11 03:11:25;;;;;;;90.70;43.90;;;;;;;4.17;100.00;100292.16;109605;1252;62448;-80
2024/02/11 03:13:52;;;;;;;89.10;46.00;;;;;;;4.17;100.00;100293.89;109590;1253;73037;-80
2024/02/11 03:16:20;;;;;;;96.80;47.60;;;;;;;4.17;100.00;100292.49;109566;1252;59776;-83
2024/02/11 03:18:48;;;;;;;90.90;45.30;;;;;;;4.20;100.00;100284.78;109655;1252;58739;-81
2024/02/11 03:21:16;;;;;;;83.70;42.50;;;;;;;4.23;100.00;100281.71;109579;1251;74765;-81
2024/02/11 03:23:44;;;;;;;90.40;46.10;;;;;;;4.26;100.00;100278.31;109660;1251;62474;-80
2024/02/11 03:26:12;;;;;;;94.60;45.00;;;;;;;4.30;100.00;100284.56;109606;1254;72793;-79
2024/02/11 03:28:40;;;;;;;89.30;46.50;;;;;;;4.34;100.00;100283.84;109602;1253;60048;-81
2024/02/11 03:31:08;;;;;;;89.80;43.30;;;;;;;4.40;100.00;100279.48;109608;1252;58988;-80
2024/02/11 03:33:36;;;;;;;97.80;49.30;;;;;;;4.39;100.00;100273.27;109393;1252;72580;-81
2024/02/11 03:36:04;;;;;;;94.60;46.20;;;;;;;4.40;100.00;100267.02;109566;1252;63627;-81
2024/02/11 03:38:32;;;;;;;95.20;45.40;;;;;;;4.42;100.00;100260.02;109619;1253;71459;-80
2024/02/11 03:40:59;;;;;;;93.30;44.20;;;;;;;4.43;100.00;100250.96;109599;1253;59663;-82
2024/02/11 03:43:27;;;;;;;94.70;43.90;;;;;;;4.46;100.00;100247.02;109698;1252;59942;-79
2024/02/11 03:45:55;;;;;;;115.00;47.90;;;;;;;4.46;100.00;100251.71;109716;1254;72094;-81
2024/02/11 03:48:22;;;;;;;113.90;48.90;;;;;;;4.42;100.00;100254.16;109676;1253;63515;-83
2024/02/11 03:50:50;;;;;;;100.30;46.90;;;;;;;4.40;100.00;100253.31;109631;1252;71440;-82
2024/02/11 03:53:20;;;;;;;90.20;45.20;;;;;;;4.40;100.00;100252.64;109543;1252;59991;-81
2024/02/11 03:55:48;;;;;;;105.30;48.00;;;;;;;4.40;100.00;100253.17;109640;1252;58745;-81
2024/02/11 03:58:16;;;;;;;107.50;48.00;;;;;;;4.39;100.00;100256.48;109587;1253;73897;-81
2024/02/11 04:00:44;;;;;;;102.40;44.70;;;;;;;4.42;100.00;100250.67;109635;1252;63786;-81
2024/02/11 04:03:15;;;;;;;96.10;43.60;;;;;;;4.44;100.00;100256.48;109603;1252;71280;-79
2024/02/11 04:05:46;;;;;;;92.30;44.80;;;;;;;4.47;100.00;100261.70;109676;1252;58871;-81
2024/02/11 04:08:15;;;;;;;104.90;47.00;;;;;;;4.51;100.00;100259.30;109657;1252;58753;-80
2024/02/11 04:10:44;;;;;;;99.40;45.60;;;;;;;4.54;100.00;100258.46;109603;1252;72725;-80
2024/02/11 04:13:12;;;;;;;108.50;45.80;;;;;;;4.59;100.00;100255.33;109670;1253;63422;-80
2024/02/11 04:15:41;;;;;;;115.50;45.10;;;;;;;4.64;100.00;100257.23;109591;1253;71373;-81
2024/02/11 04:18:10;;;;;;;104.20;44.30;;;;;;;4.66;100.00;100254.52;109601;1253;58604;-79
2024/02/11 04:20:40;;;;;;;115.90;46.60;;;;;;;4.67;100.00;100248.95;109588;1253;60060;-81
2024/02/11 04:23:07;;;;;;;112.60;45.50;;;;;;;4.66;100.00;100250.02;109581;1253;73081;-80
2024/02/11 04:25:39;;;;;;;102.70;43.90;;;;;;;4.64;100.00;100255.29;109629;1253;63648;-79
2024/02/11 04:28:10;;;;;;;110.10;46.90;;;;;;;4.64;100.00;100251.84;109601;1252;71671;-80
2024/02/11 04:30:39;;;;;;;89.50;42.20;;;;;;;4.65;100.00;100257.02;109671;1252;59690;-80
2024/02/11 04:33:06;;;;;;;85.60;41.00;;;;;;;4.68;100.00;100254.09;109617;1252;60034;-81
2024/02/11 04:38:35;;;;;;;108.40;44.10;;;;;;;4.78;100.00;100276.19;105982;1282;602215;-80
2024/02/11 04:41:04;;;;;;;98.20;43.30;;;;;;;4.79;100.00;100270.63;106880;1267;59749;-81
2024/02/11 04:43:34;;;;;;;94.20;41.20;;;;;;;4.80;100.00;100273.50;105237;1268;60102;-79
2024/02/11 04:46:02;;;;;;;99.60;41.80;;;;;;;4.81;100.00;100274.53;105323;1264;71063;-83
2024/02/11 04:48:31;;;;;;;112.50;47.00;;;;;;;4.78;100.00;100279.15;105172;1271;62476;-80
2024/02/11 04:50:59;;;;;;;98.10;43.00;;;;;;;4.77;100.00;100283.31;105010;1266;219934;-81
2024/02/11 04:53:30;;;;;;;102.60;42.00;;;;;;;4.78;100.00;100281.75;105171;1266;60273;-82
2024/02/11 04:56:00;;;;;;;96.90;43.30;;;;;;;4.78;100.00;100279.15;106045;1264;60361;-81
2024/02/11 04:58:29;;;;;;;99.60;44.40;;;;;;;4.77;100.00;100286.27;105151;1264;70847;-80
2024/02/11 05:00:56;;;;;;;97.10;44.40;;;;;;;4.75;100.00;100290.88;105185;1266;62410;-80
2024/02/11 05:03:24;;;;;;;127.80;54.80;;;;;;;4.72;100.00;100289.95;105791;1255;71463;-80
2024/02/11 05:05:52;;;;;;;125.80;51.30;;;;;;;4.70;100.00;100293.50;105919;1256;61198;-82
2024/02/11 05:08:25;;;;;;;108.40;44.50;;;;;;;4.68;100.00;100295.13;105696;1254;60097;-82
2024/02/11 05:10:53;;;;;;;100.70;40.90;;;;;;;4.68;100.00;100289.09;105732;1254;71930;-80
2024/02/11 05:13:23;;;;;;;96.90;41.00;;;;;;;4.68;100.00;100293.75;105544;1261;63743;-79
2024/02/11 05:15:50;;;;;;;96.10;37.80;;;;;;;4.68;100.00;100309.83;105524;1260;72728;-79
2024/02/11 05:18:18;;;;;;;102.80;40.30;;;;;;;4.68;100.00;100315.23;105752;1258;61058;-83
2024/02/11 05:20:46;;;;;;;98.40;41.80;;;;;;;4.66;100.00;100316.35;105722;1260;60187;-82
2024/02/11 05:23:13;;;;;;;97.00;38.20;;;;;;;4.65;100.00;100321.58;105799;1256;72994;-82
2024/02/11 05:25:43;;;;;;;100.70;40.30;;;;;;;4.65;100.00;100324.35;105648;1259;64028;-82
2024/02/11 05:28:14;;;;;;;98.00;40.60;;;;;;;4.66;100.00;100321.19;105758;1260;72616;-80
2024/02/11 05:30:45;;;;;;;90.50;39.30;;;;;;;4.68;100.00;100325.08;105700;1254;59787;-81
2024/02/11 05:33:17;;;;;;;96.70;36.40;;;;;;;4.71;100.00;100334.48;105823;1255;59578;-81
2024/02/11 05:35:46;;;;;;;88.80;36.90;;;;;;;4.74;100.00;100338.71;105816;1259;72018;-80
2024/02/11 05:38:13;;;;;;;88.60;36.80;;;;;;;4.76;100.00;100342.27;105752;1261;63689;-82
2024/02/11 05:40:41;;;;;;;85.80;36.60;;;;;;;4.78;100.00;100345.45;106028;1251;72531;-80
2024/02/11 05:43:09;;;;;;;92.10;38.70;;;;;;;4.81;100.00;100347.63;106077;1255;61291;-82
2024/02/11 05:45:36;;;;;;;79.50;36.20;;;;;;;4.82;100.00;100355.20;105887;1253;60351;-81
2024/02/11 05:48:03;;;;;;;84.60;38.80;;;;;;;4.83;100.00;100361.57;105858;1259;73072;-80
2024/02/11 05:50:30;;;;;;;80.00;36.10;;;;;;;4.84;100.00;100360.48;105993;1257;63537;-80
2024/02/11 05:52:58;;;;;;;92.50;37.50;;;;;;;4.83;100.00;100361.37;106001;1256;72641;-81
2024/02/11 05:55:26;;;;;;;83.90;38.00;;;;;;;4.83;100.00;100370.73;105849;1254;59792;-82
2024/02/11 05:57:53;;;;;;;89.80;38.80;;;;;;;4.83;100.00;100368.15;105928;1256;59644;-80
2024/02/11 06:00:29;;;;;;;83.80;39.40;;;;;;;4.83;100.00;100370.20;105925;1254;73149;-79
2024/02/11 06:02:56;;;;;;;88.20;36.70;;;;;;;4.82;100.00;100360.20;105904;1254;63917;-78
2024/02/11 06:05:24;;;;;;;86.70;36.80;;;;;;;4.81;100.00;100358.35;106867;1253;72685;-80
2024/02/11 06:07:54;;;;;;;77.30;34.60;;;;;;;4.81;100.00;100357.14;106010;1253;59819;-79
2024/02/11 06:10:23;;;;;;;77.30;34.90;;;;;;;4.81;100.00;100350.58;105969;1257;59727;-80
2024/02/11 06:12:52;;;;;;;80.50;36.50;;;;;;;4.77;100.00;100345.84;105950;1253;73170;-79
2024/02/11 06:15:23;;;;;;;87.20;36.70;;;;;;;4.78;100.00;100348.06;105942;1252;63919;-83
2024/02/11 06:17:53;;;;;;;86.20;38.20;;;;;;;4.81;100.00;100359.91;105941;1257;72617;-81
2024/02/11 06:20:21;;;;;;;83.40;38.40;;;;;;;4.83;100.00;100359.98;105969;1256;59839;-82
2024/02/11 06:22:53;;;;;;;73.30;35.50;;;;;;;4.84;100.00;100364.45;105931;1255;60415;-81
2024/02/11 06:25:22;;;;;;;73.80;36.80;;;;;;;4.86;100.00;100361.08;105977;1251;72957;-80
2024/02/11 06:27:50;;;;;;;77.70;39.30;;;;;;;4.87;100.00;100359.64;106089;1255;63877;-80
2024/02/11 06:30:18;;;;;;;88.20;40.20;;;;;;;4.89;100.00;100352.45;105856;1256;72686;-80
2024/02/11 06:32:55;;;;;;;70.60;36.40;;;;;;;4.94;100.00;100351.75;105910;1255;59849;-81
2024/02/11 06:35:24;;;;;;;83.20;38.00;;;;;;;4.97;100.00;100352.66;105876;1253;60224;-81
2024/02/11 06:37:54;;;;;;;89.80;39.50;;;;;;;5.00;100.00;100350.98;105869;1255;73807;-83
2024/02/11 06:40:23;;;;;;;91.60;41.40;;;;;;;5.04;100.00;100348.92;105973;1253;63887;-82
2024/02/11 06:42:52;;;;;;;89.90;41.20;;;;;;;5.10;100.00;100353.70;106037;1253;71178;-81
2024/02/11 06:45:19;;;;;;;87.50;42.40;;;;;;;5.16;100.00;100345.81;105965;1256;60950;-81
2024/02/11 06:47:47;;;;;;;89.60;41.40;;;;;;;5.24;100.00;100341.67;105969;1254;60277;-80
2024/02/11 06:50:14;;;;;;;81.50;41.70;;;;;;;5.30;100.00;100346.28;105930;1254;73065;-81
2024/02/11 06:52:43;;;;;;;89.50;43.10;;;;;;;5.35;100.00;100353.48;106348;1254;63854;-79
2024/02/11 06:55:11;;;;;;;93.20;45.70;;;;;;;5.41;100.00;100353.77;106344;1254;72732;-82
2024/02/11 06:57:39;;;;;;;86.90;46.70;;;;;;;5.46;100.00;100351.63;105934;1256;61101;-83
2024/02/11 07:00:09;;;;;;;87.60;44.80;;;;;;;5.51;100.00;100349.33;106043;1253;60392;-81
2024/02/11 07:02:37;;;;;;;64.00;35.70;;;;;;;5.58;100.00;100347.51;106107;1257;72002;-81
2024/02/11 07:05:05;;;;;;;56.50;34.70;;;;;;;5.70;100.00;100348.68;106096;1257;64109;-81
2024/02/11 07:10:35;;;;;;;60.30;34.40;;;;;;;6.02;100.00;100347.30;102759;1293;600472;-83
2024/02/11 07:13:04;;;;;;;59.00;33.30;;;;;;;6.14;100.00;100352.64;105247;1269;59923;-80
2024/02/11 07:15:33;;;;;;;56.20;33.10;;;;;;;6.29;100.00;100358.39;108830;1264;59082;-81
2024/02/11 07:18:01;;;;;;;56.50;33.50;;;;;;;6.41;100.00;100354.34;109159;1257;70312;-81
2024/02/11 07:20:29;;;;;;;53.30;32.40;;;;;;;6.52;100.00;100355.41;109056;1257;64507;-82
2024/02/11 07:22:56;;;;;;;59.50;33.60;;;;;;;6.63;100.00;100350.03;109174;1260;74054;-81
2024/02/11 07:25:24;;;;;;;57.60;32.00;;;;;;;6.74;100.00;100351.23;109192;1257;206723;-80
2024/02/11 07:27:52;;;;;;;55.10;33.20;;;;;;;6.82;100.00;100346.13;109366;1254;59182;-77
2024/02/11 07:30:19;;;;;;;59.30;33.40;;;;;;;6.92;100.00;100338.02;109225;1254;70822;-81
2024/02/11 07:32:47;;;;;;;56.50;32.70;;;;;;;7.00;100.00;100335.16;109311;1254;63538;-82
2024/02/11 07:35:18;;;;;;;54.30;32.60;;;;;;;7.09;100.00;100340.66;109246;1254;71069;-81
2024/02/11 07:37:54;;;;;;;58.30;34.70;;;;;;;7.17;100.00;100341.27;109550;1254;60932;-81
2024/02/11 07:40:21;;;;;;;56.20;31.80;;;;;;;7.23;100.00;100340.96;109818;1251;60095;-82
2024/02/11 07:42:50;;;;;;;60.60;34.80;;;;;;;7.29;100.00;100346.77;109967;1251;71580;-81
2024/02/11 07:45:26;;;;;;;58.40;35.00;;;;;;;7.36;100.00;100357.73;109738;1251;63696;-82
2024/02/11 07:47:55;;;;;;;59.30;34.40;;;;;;;7.42;100.00;100363.14;109755;1251;71474;-81
2024/02/11 07:50:24;;;;;;;50.90;31.10;;;;;;;7.49;100.00;100366.07;109964;1251;60035;-81
2024/02/11 07:52:52;;;;;;;53.00;32.40;;;;;;;7.55;100.00;100370.81;109837;1251;58951;-79
2024/02/11 07:55:21;;;;;;;56.50;32.90;;;;;;;7.60;100.00;100374.19;109771;1251;74333;-81
2024/02/11 07:57:49;;;;;;;51.80;31.50;;;;;;;7.67;100.00;100381.16;109812;1251;62443;-79
2024/02/11 08:00:20;;;;;;;57.00;31.70;;;;;;;7.72;100.00;100378.66;109722;1256;72511;-81
2024/02/11 08:02:50;;;;;;;59.30;31.40;;;;;;;7.77;100.00;100378.73;109747;1251;59752;-79
2024/02/11 08:05:21;;;;;;;55.00;31.10;;;;;;;7.81;100.00;100372.94;109681;1251;59239;-80
2024/02/11 08:07:51;;;;;;;56.20;33.00;;;;;;;7.84;100.00;100369.65;109723;1251;71723;-83
2024/02/11 08:10:22;;;;;;;60.10;31.80;;;;;;;7.87;100.00;100371.05;109643;1251;63994;-81
2024/02/11 08:12:50;;;;;;;52.40;31.30;;;;;;;7.88;100.00;100369.44;109648;1251;72510;-82
2024/02/11 08:15:19;;;;;;;61.90;33.30;;;;;;;7.91;100.00;100372.45;109617;1254;59624;-80
2024/02/11 08:17:47;;;;;;;56.80;32.70;;;;;;;7.93;100.00;100373.23;109779;1251;60022;-83
2024/02/11 08:20:18;;;;;;;64.10;34.30;;;;;;;7.93;100.00;100376.15;109761;1251;72981;-81
2024/02/11 08:22:47;;;;;;;65.90;33.80;;;;;;;7.94;100.00;100383.09;109805;1251;62974;-80
2024/02/11 08:25:18;;;;;;;56.60;34.20;;;;;;;7.94;100.00;100385.48;109689;1250;71368;-80
2024/02/11 08:27:47;;;;;;;71.40;37.00;;;;;;;7.97;100.00;100380.84;109787;1250;62013;-78
2024/02/11 08:30:29;;;;;;;64.60;35.30;;;;;;;8.00;100.00;100382.72;109465;1254;58844;-80
2024/02/11 08:33:23;;;;;;;61.50;32.40;;;;;;;8.05;100.00;100384.73;109702;1253;73813;-80
2024/02/11 08:35:56;;;;;;;63.60;34.60;;;;;;;8.07;100.00;100391.79;109697;1254;62491;-80
2024/02/11 08:38:24;;;;;;;69.10;34.60;;;;;;;8.09;100.00;100384.18;109738;1254;71393;-78
2024/02/11 08:41:20;;;;;;;65.20;35.20;;;;;;;8.11;100.00;100388.09;109644;1253;59745;-79
2024/02/11 08:44:18;;;;;;;70.70;36.10;;;;;;;8.10;100.00;100375.61;109717;1253;59088;-81
2024/02/11 09:00:18;;;;;;;65.70;36.90;;;;;;;8.46;100.00;100393.35;103513;1285;614205;-81
2024/02/11 09:02:46;;;;;;;63.70;33.70;;;;;;;8.55;100.00;100401.06;104976;1272;199468;-81
2024/02/11 09:05:14;;;;;;;56.50;31.60;;;;;;;8.54;100.00;100395.58;105162;1267;59375;-83
2024/02/11 09:07:46;;;;;;;60.20;32.40;;;;;;;8.51;100.00;100388.40;105130;1267;70980;-81
2024/02/11 09:10:14;;;;;;;57.80;29.90;;;;;;;8.50;100.00;100386.52;104909;1267;64275;-81
2024/02/11 09:12:42;;;;;;;55.90;29.90;;;;;;;8.49;100.00;100389.69;105554;1263;71455;-83
2024/02/11 09:15:10;;;;;;;61.40;31.00;;;;;;;8.50;100.00;100396.26;105258;1267;60902;-81
2024/02/11 09:17:44;;;;;;;53.10;28.70;;;;;;;8.53;100.00;100397.87;105431;1265;59276;-82
2024/02/11 09:20:15;;;;;;;56.50;30.10;;;;;;;8.55;100.00;100395.84;105649;1263;71377;-81
2024/02/11 09:22:44;;;;;;;52.90;25.80;;;;;;;8.55;100.00;100400.04;105751;1268;63975;-82
2024/02/11 09:25:13;;;;;;;58.80;27.80;;;;;;;8.55;100.00;100399.86;105547;1267;72999;-83
2024/02/11 09:27:43;;;;;;;50.80;28.20;;;;;;;8.56;100.00;100400.34;105629;1266;61301;-82
2024/02/11 09:30:11;;;;;;;44.30;23.10;;;;;;;8.57;100.00;100396.97;105513;1263;59808;-83
2024/02/11 09:32:39;;;;;;;45.30;24.40;;;;;;;8.58;100.00;100400.90;109064;1259;72014;-83
2024/02/11 09:35:07;;;;;;;43.70;23.60;;;;;;;8.58;100.00;100404.19;109084;1258;63756;-82
2024/02/11 09:37:35;;;;;;;48.20;23.90;;;;;;;8.58;100.00;100406.47;109103;1259;72518;-81
2024/02/11 09:40:03;;;;;;;35.80;23.50;;;;;;;8.57;100.00;100400.96;109057;1259;60438;-83
2024/02/11 09:42:33;;;;;;;36.00;21.60;;;;;;;8.56;100.00;100394.03;109068;1259;59261;-83
2024/02/11 09:45:03;;;;;;;34.00;20.70;;;;;;;8.59;100.00;100388.61;109013;1259;74848;-83
2024/02/11 09:47:32;;;;;;;27.10;19.20;;;;;;;8.61;100.00;100389.38;109059;1259;62440;-81
2024/02/11 09:50:03;;;;;;;28.50;18.80;;;;;;;8.65;100.00;100391.59;108946;1258;72810;-81
2024/02/11 09:52:31;;;;;;;32.60;21.20;;;;;;;8.70;100.00;100394.12;109060;1258;61652;-83
2024/02/11 09:54:59;;;;;;;25.70;18.70;;;;;;;8.76;100.00;100388.56;108973;1259;60487;-82
2024/02/11 09:57:26;;;;;;;27.60;18.50;;;;;;;8.83;100.00;100385.59;108940;1258;74081;-81
2024/02/11 09:59:55;;;;;;;26.20;19.40;;;;;;;8.87;100.00;100384.98;109086;1259;63904;-82
2024/02/11 10:02:23;;;;;;;25.20;18.50;;;;;;;8.91;100.00;100381.26;109033;1264;71660;-82
2024/02/11 10:04:53;;;;;;;23.90;17.10;;;;;;;8.97;100.00;100383.55;109028;1259;61775;-84
2024/02/11 10:07:23;;;;;;;21.90;17.20;;;;;;;9.01;100.00;100383.84;108999;1258;59160;-82
2024/02/11 10:09:51;;;;;;;23.70;17.40;;;;;;;9.04;100.00;100376.88;109145;1259;74638;-83
2024/02/11 10:12:19;;;;;;;22.70;17.30;;;;;;;9.08;100.00;100373.15;109143;1259;62563;-81
2024/02/11 10:14:57;;;;;;;23.10;16.10;;;;;;;9.13;100.00;100370.41;109047;1258;72114;-81
2024/02/11 10:17:25;;;;;;;23.40;16.60;;;;;;;9.19;100.00;100362.95;109051;1259;61661;-83
2024/02/11 10:19:53;;;;;;;21.30;15.50;;;;;;;9.27;100.00;100360.55;109061;1259;60015;-79
2024/02/11 10:22:22;;;;;;;18.80;14.60;;;;;;;9.35;100.00;100354.34;109030;1264;73065;-82
2024/02/11 10:24:56;;;;;;;19.80;16.30;;;;;;;9.41;100.00;100353.77;108913;1259;64438;-81
2024/02/11 10:27:23;;;;;;;21.50;15.00;;;;;;;9.48;100.00;100348.62;108923;1260;72535;-82
2024/02/11 10:29:51;;;;;;;22.10;17.30;;;;;;;9.54;100.00;100343.21;108952;1260;60431;-82
2024/02/11 10:32:19;;;;;;;25.30;18.30;;;;;;;9.62;100.00;100342.78;109038;1259;62020;-83
2024/02/11 10:34:46;;;;;;;23.80;17.80;;;;;;;9.67;100.00;100342.98;109037;1259;75489;-83
2024/02/11 10:37:15;;;;;;;26.00;20.20;;;;;;;9.71;100.00;100346.55;109208;1256;63691;-81
2024/02/11 10:39:43;;;;;;;23.10;18.60;;;;;;;9.74;100.00;100343.92;109140;1256;72868;-82
2024/02/11 10:42:13;;;;;;;25.50;19.50;;;;;;;9.77;100.00;100344.78;109278;1256;61688;-82
2024/02/11 10:44:43;;;;;;;23.60;20.30;;;;;;;9.82;100.00;100344.71;109283;1256;61039;-84
2024/02/11 10:47:11;;;;;;;24.20;18.80;;;;;;;9.86;100.00;100331.70;109002;1256;71927;-83
2024/02/11 10:49:40;;;;;;;24.50;18.50;;;;;;;9.92;100.00;100335.17;109300;1257;62564;-83
2024/02/11 10:52:12;;;;;;;24.20;20.20;;;;;;;9.98;100.00;100336.00;109228;1256;72678;-82
2024/02/11 10:54:41;;;;;;;25.40;19.90;;;;;;;10.04;100.00;100335.85;109237;1260;61767;-82
2024/02/11 10:57:18;;;;;;;25.90;19.70;;;;;;;10.08;100.00;100343.25;109252;1257;60104;-82
2024/02/11 10:59:57;;;;;;;24.90;19.00;;;;;;;10.11;100.00;100347.73;109241;1256;73150;-83
2024/02/11 11:02:25;;;;;;;24.30;18.20;;;;;;;10.15;100.00;100343.85;109166;1256;64671;-83
2024/02/11 11:04:55;;;;;;;27.60;19.90;;;;;;;10.17;100.00;100346.00;109107;1257;74058;-82
2024/02/11 11:07:23;;;;;;;24.10;18.20;;;;;;;10.16;100.00;100342.42;109135;1257;61726;-83
2024/02/11 11:09:51;;;;;;;26.80;18.10;;;;;;;10.13;100.00;100337.89;109142;1256;59268;-81
2024/02/11 11:12:22;;;;;;;28.80;19.30;;;;;;;10.09;100.00;100333.08;109067;1256;73913;-82
2024/02/11 11:14:55;;;;;;;27.90;20.30;;;;;;;10.06;100.00;100324.73;109211;1256;63620;-83
2024/02/11 11:17:23;;;;;;;24.10;18.70;;;;;;;10.04;100.00;100325.13;109165;1256;72740;-82
2024/02/11 11:19:51;;;;;;;26.30;19.20;;;;;;;10.03;100.00;100317.89;109144;1257;60409;-82
2024/02/11 11:22:28;;;;;;;25.60;19.50;;;;;;;10.04;100.00;100311.34;109256;1261;58840;-80
2024/02/11 11:24:56;;;;;;;27.10;19.30;;;;;;;10.06;100.00;100308.09;109214;1257;73853;-81
2024/02/11 11:27:24;;;;;;;25.10;18.90;;;;;;;10.08;100.00;100303.09;109235;1258;62290;-81